Time;durP1;ratioP1;P1;durP2;ratioP2;P2;SDS_P1;SDS_P2;PMS_P1;PMS_P2;Temp;Humidity;BMP_temperature;BMP_pressure;BME280_temperature;BME280_humidity;BME280_pressure;Samples;Min_cycle;Max_cycle;Signal;HPM_P1;HPM_P2
2022/07/17 00:02:02;;;;;;;1.67;1.25;;;22.10;58.90;;;;;;5082488;27;20422;-19
2022/07/17 00:04:27;;;;;;;2.05;1.27;;;22.10;59.00;;;;;;5084853;28;20046;-20
2022/07/17 00:06:53;;;;;;;1.45;1.38;;;22.10;59.10;;;;;;5084287;27;20040;-19
2022/07/17 00:09:19;;;;;;;1.63;1.35;;;22.20;59.10;;;;;;5081951;27;20060;-19
2022/07/17 00:11:44;;;;;;;1.88;1.30;;;22.10;59.20;;;;;;5084042;27;20040;-19
2022/07/17 00:14:10;;;;;;;1.13;1.10;;;22.00;59.40;;;;;;5083551;27;20046;-28
2022/07/17 00:16:35;;;;;;;1.13;1.13;;;22.10;59.40;;;;;;5080540;27;20078;-20
2022/07/17 00:19:01;;;;;;;3.15;1.55;;;22.00;59.60;;;;;;5085334;27;20039;-19
2022/07/17 00:21:26;;;;;;;1.30;1.20;;;21.90;59.80;;;;;;5084168;27;20043;-19
2022/07/17 00:23:52;;;;;;;1.25;1.15;;;21.90;59.80;;;;;;5083035;27;20024;-21
2022/07/17 00:26:18;;;;;;;1.23;1.13;;;21.90;59.90;;;;;;5082696;27;20045;-19
2022/07/17 00:28:43;;;;;;;1.10;1.10;;;21.90;60.20;;;;;;5084430;27;29327;-19
2022/07/17 00:31:09;;;;;;;1.08;0.90;;;22.00;60.10;;;;;;5083738;28;20038;-19
2022/07/17 00:33:34;;;;;;;1.40;1.27;;;21.90;60.20;;;;;;5083206;27;20665;-19
2022/07/17 00:36:00;;;;;;;2.58;1.27;;;21.90;60.30;;;;;;5082032;28;20047;-20
2022/07/17 00:38:26;;;;;;;1.40;1.30;;;21.90;60.20;;;;;;5085088;27;20161;-20
2022/07/17 00:40:58;;;;;;;1.45;1.35;;;21.80;60.50;;;;;;5083046;27;20092;-20
2022/07/17 00:43:23;;;;;;;3.00;1.23;;;21.80;61.00;;;;;;5084299;27;20081;-20
2022/07/17 00:45:59;;;;;;;1.23;0.98;;;21.90;60.40;;;;;;5084081;27;20092;-20
2022/07/17 00:48:25;;;;;;;1.92;1.00;;;21.80;60.70;;;;;;5084680;27;20063;-19
2022/07/17 00:50:51;;;;;;;1.17;1.05;;;21.80;60.80;;;;;;5083328;28;20490;-19
2022/07/17 00:53:17;;;;;;;1.00;1.00;;;21.80;60.60;;;;;;5083450;27;20074;-20
2022/07/17 00:55:42;;;;;;;2.42;1.20;;;21.80;60.50;;;;;;5081389;27;20036;-20
2022/07/17 00:58:08;;;;;;;1.08;1.08;;;21.80;60.50;;;;;;5083421;28;20042;-20
2022/07/17 01:00:34;;;;;;;1.27;1.17;;;21.80;60.50;;;;;;5080324;27;20413;-19
2022/07/17 01:03:00;;;;;;;1.35;1.25;;;21.80;60.60;;;;;;5083970;27;20075;-19
2022/07/17 01:05:26;;;;;;;1.10;1.00;;;21.70;60.90;;;;;;5082311;27;20062;-20
2022/07/17 01:07:52;;;;;;;1.30;1.23;;;21.70;61.10;;;;;;5082778;27;20506;-19
2022/07/17 01:10:17;;;;;;;3.80;1.30;;;21.70;61.10;;;;;;5082211;27;20048;-19
2022/07/17 01:12:44;;;;;;;1.20;1.10;;;21.70;61.10;;;;;;5083153;28;20059;-19
2022/07/17 01:15:10;;;;;;;1.20;1.00;;;21.70;61.00;;;;;;5081680;28;20138;-20
2022/07/17 01:17:35;;;;;;;1.50;1.10;;;21.70;61.10;;;;;;5082289;27;20146;-19
2022/07/17 01:20:05;;;;;;;2.17;1.10;;;21.70;61.20;;;;;;5084354;27;20131;-19
2022/07/17 01:22:31;;;;;;;1.15;1.00;;;21.60;61.10;;;;;;5082346;27;20051;-18
2022/07/17 01:24:57;;;;;;;1.63;1.15;;;21.60;61.30;;;;;;5079162;28;20040;-20
2022/07/17 01:27:22;;;;;;;2.72;0.93;;;21.60;61.20;;;;;;5083860;28;20520;-19
2022/07/17 01:29:48;;;;;;;0.95;0.77;;;21.60;61.30;;;;;;5081985;27;20569;-19
2022/07/17 01:32:13;;;;;;;1.13;1.00;;;21.60;61.10;;;;;;5082914;27;20055;-19
2022/07/17 01:34:39;;;;;;;1.20;1.10;;;21.60;61.30;;;;;;5081489;27;20384;-20
2022/07/17 01:37:04;;;;;;;1.10;1.10;;;21.60;61.90;;;;;;5083971;27;20058;-19
2022/07/17 01:42:14;;;;;;;;;;;21.50;61.30;;;;;;5080129;28;20426;-26
2022/07/17 01:44:40;;;;;;;0.73;0.73;;;21.50;61.30;;;;;;5083055;27;19916;-19
2022/07/17 01:47:05;;;;;;;1.70;1.10;;;21.50;61.30;;;;;;5083630;27;20043;-20
2022/07/17 01:49:31;;;;;;;1.35;1.25;;;21.40;62.10;;;;;;5081551;27;20536;-19
2022/07/17 01:51:59;;;;;;;1.10;1.00;;;21.50;61.60;;;;;;5082039;28;20105;-19
2022/07/17 01:54:29;;;;;;;1.17;1.08;;;21.50;62.20;;;;;;5081988;27;20533;-19
2022/07/17 01:56:54;;;;;;;1.20;1.10;;;21.40;61.40;;;;;;5082741;28;20036;-19
2022/07/17 01:59:20;;;;;;;1.35;1.05;;;21.40;61.40;;;;;;5083636;27;20486;-19
2022/07/17 02:01:45;;;;;;;1.10;1.10;;;21.50;61.00;;;;;;5081087;27;20581;-19
2022/07/17 02:04:11;;;;;;;1.45;1.13;;;21.40;61.10;;;;;;5083077;27;20040;-19
2022/07/17 02:06:37;;;;;;;1.55;1.00;;;21.40;61.30;;;;;;5082762;27;20449;-26
2022/07/17 02:09:02;;;;;;;1.30;1.10;;;21.40;61.10;;;;;;5082210;28;20036;-24
2022/07/17 02:11:28;;;;;;;1.20;1.10;;;21.50;61.00;;;;;;5079571;27;20063;-19
2022/07/17 02:13:53;;;;;;;0.90;0.90;;;21.50;61.00;;;;;;5082296;27;20456;-19
2022/07/17 02:16:19;;;;;;;1.10;1.10;;;21.40;61.00;;;;;;5081914;28;20074;-19
2022/07/17 02:18:45;;;;;;;1.20;1.20;;;21.40;61.30;;;;;;5081751;27;20398;-21
2022/07/17 02:21:10;;;;;;;1.10;1.10;;;21.50;60.80;;;;;;5080373;27;20044;-19
2022/07/17 02:23:36;;;;;;;1.60;1.20;;;21.50;60.70;;;;;;5080694;27;20136;-20
2022/07/17 02:26:02;;;;;;;1.55;1.40;;;21.50;60.50;;;;;;5078290;27;20032;-19
2022/07/17 02:28:27;;;;;;;1.33;1.00;;;21.40;60.70;;;;;;5082078;28;20089;-20
2022/07/17 02:30:53;;;;;;;1.00;0.93;;;21.50;60.50;;;;;;5081399;28;20059;-24
2022/07/17 02:33:19;;;;;;;1.50;1.40;;;21.50;61.20;;;;;;5079903;28;20048;-19
2022/07/17 02:35:45;;;;;;;2.05;1.00;;;21.40;60.70;;;;;;5078980;27;20123;-24
2022/07/17 02:38:10;;;;;;;1.10;1.00;;;21.40;60.50;;;;;;5081674;27;20051;-19
2022/07/17 02:40:36;;;;;;;1.05;0.98;;;21.40;60.40;;;;;;5080189;27;20078;-19
2022/07/17 02:43:01;;;;;;;1.40;1.25;;;21.40;60.50;;;;;;5080891;27;20410;-26
2022/07/17 02:45:27;;;;;;;1.92;0.90;;;21.40;60.30;;;;;;5080845;28;20105;-20
2022/07/17 02:47:54;;;;;;;0.70;0.70;;;21.40;60.30;;;;;;5080707;27;20036;-19
2022/07/17 02:50:20;;;;;;;1.00;1.00;;;21.30;60.40;;;;;;5080641;27;20059;-19
2022/07/17 02:52:46;;;;;;;1.15;1.05;;;21.30;60.50;;;;;;5081237;27;20041;-20
2022/07/17 02:55:11;;;;;;;1.40;1.30;;;21.30;60.30;;;;;;5080422;27;20063;-19
2022/07/17 02:57:37;;;;;;;2.33;0.90;;;21.30;60.10;;;;;;5081616;27;20028;-22
2022/07/17 03:00:05;;;;;;;1.08;1.08;;;21.30;59.80;;;;;;5079077;27;20052;-19
2022/07/17 03:02:31;;;;;;;0.98;0.90;;;21.30;59.80;;;;;;5080133;27;20043;-19
2022/07/17 03:04:56;;;;;;;1.20;1.10;;;21.20;59.80;;;;;;5080432;27;20722;-19
2022/07/17 03:07:22;;;;;;;1.10;1.00;;;21.20;60.70;;;;;;5082778;27;20048;-19
2022/07/17 03:09:47;;;;;;;1.30;1.00;;;21.20;60.00;;;;;;5083192;27;20055;-19
2022/07/17 03:12:13;;;;;;;0.98;0.98;;;21.20;59.90;;;;;;5079092;28;20036;-20
2022/07/17 03:14:39;;;;;;;1.00;1.00;;;21.30;59.50;;;;;;5079005;27;20044;-20
2022/07/17 03:17:04;;;;;;;1.05;1.05;;;21.20;59.40;;;;;;5080316;28;20532;-19
2022/07/17 03:19:30;;;;;;;1.00;1.00;;;21.20;59.50;;;;;;5081075;27;20655;-19
2022/07/17 03:21:55;;;;;;;1.40;1.30;;;21.20;59.50;;;;;;5083008;27;20055;-19
2022/07/17 03:24:21;;;;;;;1.05;0.95;;;21.20;59.50;;;;;;5081672;28;20044;-19
2022/07/17 03:26:46;;;;;;;1.05;0.90;;;21.20;59.30;;;;;;5077681;27;20101;-20
2022/07/17 03:29:12;;;;;;;1.00;1.00;;;21.20;59.10;;;;;;5081957;27;20036;-19
2022/07/17 03:31:38;;;;;;;1.15;1.00;;;21.10;59.10;;;;;;5078599;27;20504;-19
2022/07/17 03:34:03;;;;;;;1.27;1.10;;;21.10;58.90;;;;;;5081741;28;20060;-19
2022/07/17 03:36:29;;;;;;;1.23;1.13;;;21.10;59.10;;;;;;5079880;27;20033;-19
2022/07/17 03:38:55;;;;;;;0.90;0.90;;;21.20;59.10;;;;;;5078549;27;20494;-20
2022/07/17 03:41:20;;;;;;;2.53;1.23;;;21.20;58.90;;;;;;5081074;27;20044;-19
2022/07/17 03:43:46;;;;;;;1.65;1.20;;;21.10;58.70;;;;;;5082323;27;20526;-19
2022/07/17 03:46:11;;;;;;;1.00;1.00;;;21.00;59.00;;;;;;5081511;28;20040;-19
2022/07/17 03:48:38;;;;;;;1.98;1.30;;;21.10;58.60;;;;;;5079922;28;20043;-17
2022/07/17 03:51:03;;;;;;;1.20;1.10;;;21.10;58.40;;;;;;5079809;27;20150;-19
2022/07/17 03:53:29;;;;;;;1.02;0.93;;;21.10;58.40;;;;;;5080578;27;20074;-19
2022/07/17 03:55:54;;;;;;;0.98;0.93;;;21.10;58.10;;;;;;5080545;27;20079;-20
2022/07/17 03:58:20;;;;;;;1.00;1.00;;;21.10;58.10;;;;;;5079718;28;20047;-19
2022/07/17 04:00:46;;;;;;;1.00;1.00;;;21.10;59.00;;;;;;5077162;27;20041;-19
2022/07/17 04:03:11;;;;;;;1.08;1.08;;;21.10;58.40;;;;;;5078094;27;20510;-20
2022/07/17 04:05:37;;;;;;;1.80;1.35;;;21.10;58.20;;;;;;5081984;27;20028;-18
2022/07/17 04:08:02;;;;;;;1.52;1.23;;;21.00;58.10;;;;;;5079696;27;20052;-20
2022/07/17 04:10:28;;;;;;;1.77;1.10;;;21.00;58.20;;;;;;5080522;27;20048;-20
2022/07/17 04:12:53;;;;;;;1.30;1.20;;;21.00;58.20;;;;;;5081784;27;20591;-19
2022/07/17 04:16:04;;;;;;;1.10;1.10;;;21.00;58.00;;;;;;5077883;27;20058;-20
2022/07/17 04:18:05;;;;;;;2.25;1.10;;;20.90;58.00;;;;;;5079789;28;20391;-19
2022/07/17 04:20:30;;;;;;;1.33;1.23;;;20.90;58.00;;;;;;5078326;27;20090;-19
2022/07/17 04:22:57;;;;;;;1.05;1.02;;;20.90;58.10;;;;;;5081255;27;20089;-20
2022/07/17 04:25:23;;;;;;;1.40;0.90;;;21.00;58.30;;;;;;5080248;27;20127;-19
2022/07/17 04:27:48;;;;;;;3.30;1.02;;;20.90;58.20;;;;;;5078805;27;20484;-19
2022/07/17 04:30:14;;;;;;;1.10;1.10;;;20.90;58.30;;;;;;5079981;27;20052;-19
2022/07/17 04:32:39;;;;;;;2.08;1.23;;;20.90;58.40;;;;;;5081568;27;20040;-20
2022/07/17 04:35:06;;;;;;;1.17;1.13;;;20.90;58.30;;;;;;5084212;27;20044;-20
2022/07/17 04:37:31;;;;;;;1.10;1.00;;;21.00;58.10;;;;;;5081104;27;20040;-19
2022/07/17 04:39:57;;;;;;;3.58;1.00;;;20.90;58.00;;;;;;5083621;27;20052;-19
2022/07/17 04:42:22;;;;;;;1.33;1.17;;;20.90;58.30;;;;;;5077009;28;20039;-19
2022/07/17 04:44:48;;;;;;;1.48;1.35;;;20.90;58.60;;;;;;5077043;27;20520;-24
2022/07/17 04:47:13;;;;;;;1.20;1.13;;;20.80;58.60;;;;;;5079725;27;20093;-19
2022/07/17 04:49:39;;;;;;;1.88;1.45;;;20.80;58.50;;;;;;5078514;27;20044;-20
2022/07/17 04:52:05;;;;;;;1.92;1.10;;;20.70;59.30;;;;;;5078588;27;20044;-19
2022/07/17 04:54:30;;;;;;;1.10;1.00;;;20.70;58.80;;;;;;5078832;27;20052;-19
2022/07/17 04:56:56;;;;;;;1.10;1.00;;;20.80;58.80;;;;;;5077264;27;20048;-20
2022/07/17 04:59:21;;;;;;;1.10;1.08;;;20.80;58.70;;;;;;5078824;28;20071;-19
2022/07/17 05:01:47;;;;;;;1.73;1.10;;;20.70;58.80;;;;;;5077883;28;21386;-19
2022/07/17 05:04:12;;;;;;;1.17;1.08;;;20.80;58.80;;;;;;5081952;27;20107;-19
2022/07/17 05:06:38;;;;;;;1.40;1.00;;;20.70;58.70;;;;;;5081938;28;20548;-20
2022/07/17 05:09:03;;;;;;;1.80;1.20;;;20.70;58.80;;;;;;5076104;28;20048;-19
2022/07/17 05:11:29;;;;;;;2.67;1.15;;;20.80;58.70;;;;;;5079029;27;20064;-20
2022/07/17 05:13:54;;;;;;;1.35;1.25;;;20.70;58.70;;;;;;5080210;27;20062;-19
2022/07/17 05:16:20;;;;;;;1.50;1.27;;;20.70;58.70;;;;;;5076532;27;20115;-19
2022/07/17 05:18:46;;;;;;;1.13;1.05;;;20.70;58.70;;;;;;5078767;28;20032;-19
2022/07/17 05:21:11;;;;;;;1.40;1.30;;;20.60;58.80;;;;;;5077775;28;20391;-19
2022/07/17 05:23:37;;;;;;;2.78;1.00;;;20.70;58.90;;;;;;5080044;27;20029;-19
2022/07/17 05:26:02;;;;;;;3.55;1.05;;;20.70;59.00;;;;;;5076725;27;20045;-19
2022/07/17 05:28:28;;;;;;;1.70;1.20;;;20.70;59.00;;;;;;5077983;27;20859;-19
2022/07/17 05:30:53;;;;;;;1.00;1.00;;;20.60;59.00;;;;;;5080939;28;20048;-19
2022/07/17 05:33:19;;;;;;;1.73;1.30;;;20.60;58.90;;;;;;5078204;28;20045;-20
2022/07/17 05:35:45;;;;;;;1.10;1.00;;;20.80;58.80;;;;;;5077116;27;20181;-19
2022/07/17 05:38:10;;;;;;;1.33;1.23;;;20.70;58.90;;;;;;5077019;28;20045;-19
2022/07/17 05:40:36;;;;;;;1.65;1.13;;;20.70;59.90;;;;;;5076887;27;20072;-19
2022/07/17 05:43:02;;;;;;;1.00;0.90;;;20.70;59.10;;;;;;5076553;27;20056;-20
2022/07/17 05:45:27;;;;;;;1.73;1.00;;;20.70;59.20;;;;;;5081112;28;20493;-19
2022/07/17 05:47:53;;;;;;;1.10;0.93;;;20.70;59.30;;;;;;5079345;27;20361;-19
2022/07/17 05:50:18;;;;;;;1.60;1.20;;;20.60;59.20;;;;;;5084356;28;20387;-19
2022/07/17 05:52:44;;;;;;;1.65;1.05;;;20.60;59.40;;;;;;5083225;27;20075;-22
2022/07/17 05:55:10;;;;;;;1.45;1.10;;;20.70;59.50;;;;;;5082497;27;20413;-19
2022/07/17 05:57:35;;;;;;;0.80;0.80;;;20.70;59.40;;;;;;4726019;27;10000324;-19
2022/07/17 06:00:01;;;;;;;2.28;1.00;;;20.70;59.50;;;;;;5069447;28;20048;-19
2022/07/17 06:02:26;;;;;;;2.05;0.82;;;20.70;59.80;;;;;;5071613;27;20785;-20
2022/07/17 06:04:52;;;;;;;0.80;0.80;;;20.70;59.80;;;;;;5068730;27;20475;-20
2022/07/17 06:07:18;;;;;;;0.93;0.90;;;20.80;59.80;;;;;;5066464;28;20048;-20
2022/07/17 06:09:43;;;;;;;1.27;1.17;;;20.70;59.60;;;;;;5070524;27;20101;-20
2022/07/17 06:12:09;;;;;;;1.30;1.20;;;20.80;59.60;;;;;;5071443;28;20601;-19
2022/07/17 06:14:34;;;;;;;1.13;1.00;;;20.70;59.60;;;;;;5067798;28;20398;-20
2022/07/17 06:17:00;;;;;;;1.08;1.02;;;20.70;59.70;;;;;;5065598;27;20481;-19
2022/07/17 06:19:25;;;;;;;0.85;0.80;;;20.80;59.50;;;;;;5070569;27;21088;-19
2022/07/17 06:21:51;;;;;;;1.02;0.93;;;20.80;59.60;;;;;;5071086;27;20043;-20
2022/07/17 06:24:17;;;;;;;1.13;1.02;;;20.80;59.60;;;;;;5064943;27;20048;-19
2022/07/17 06:26:42;;;;;;;0.82;0.82;;;20.80;59.50;;;;;;5064928;28;20051;-20
2022/07/17 06:29:08;;;;;;;2.42;0.90;;;20.80;59.60;;;;;;5067519;27;20105;-24
2022/07/17 06:31:33;;;;;;;1.63;0.82;;;20.80;59.70;;;;;;5069792;28;20445;-19
2022/07/17 06:33:59;;;;;;;1.73;1.08;;;20.80;59.60;;;;;;5064542;27;20098;-19
2022/07/17 06:36:24;;;;;;;1.35;1.00;;;20.80;59.60;;;;;;5068774;28;20161;-20
2022/07/17 06:38:50;;;;;;;1.52;0.63;;;20.90;59.60;;;;;;5068933;27;20595;-19
2022/07/17 06:41:15;;;;;;;1.10;1.10;;;20.90;59.60;;;;;;5074642;27;20062;-19
2022/07/17 06:43:41;;;;;;;2.90;0.80;;;20.90;59.70;;;;;;5069381;28;20810;-19
2022/07/17 06:46:07;;;;;;;0.63;0.63;;;21.00;59.80;;;;;;5073384;27;20035;-21
2022/07/17 06:48:32;;;;;;;0.75;0.75;;;20.90;59.80;;;;;;5072620;28;20028;-19
2022/07/17 06:50:58;;;;;;;1.67;0.90;;;21.00;59.80;;;;;;5073139;27;20052;-19
2022/07/17 06:53:23;;;;;;;1.15;1.08;;;21.00;59.70;;;;;;5072864;27;20032;-19
2022/07/17 06:55:49;;;;;;;0.73;0.73;;;21.00;59.70;;;;;;5076258;27;20131;-19
2022/07/17 06:58:14;;;;;;;1.83;1.10;;;21.00;59.80;;;;;;5072588;27;20490;-19
2022/07/17 07:00:40;;;;;;;1.60;1.00;;;21.00;59.90;;;;;;5074735;27;20047;-19
2022/07/17 07:03:06;;;;;;;0.70;0.70;;;21.00;59.90;;;;;;5071211;27;20798;-19
2022/07/17 07:05:31;;;;;;;0.77;0.77;;;21.00;59.90;;;;;;5072822;27;20087;-19
2022/07/17 07:07:57;;;;;;;0.80;0.80;;;21.00;59.70;;;;;;5072054;28;20048;-19
2022/07/17 07:10:22;;;;;;;0.85;0.85;;;21.10;59.60;;;;;;5074051;27;20047;-20
2022/07/17 07:12:48;;;;;;;1.10;1.00;;;21.20;59.50;;;;;;5076322;27;20115;-19
2022/07/17 07:15:14;;;;;;;1.20;1.10;;;21.10;59.60;;;;;;5076349;27;20532;-19
2022/07/17 07:17:40;;;;;;;0.90;0.90;;;21.20;59.50;;;;;;5075834;28;20052;-19
2022/07/17 07:20:06;;;;;;;2.13;0.63;;;21.20;59.50;;;;;;5072952;27;20074;-19
2022/07/17 07:22:32;;;;;;;0.63;0.63;;;21.20;59.40;;;;;;5075105;27;20055;-19
2022/07/17 07:24:57;;;;;;;0.73;0.73;;;21.20;59.40;;;;;;5074645;27;20044;-19
2022/07/17 07:27:23;;;;;;;1.42;1.02;;;21.30;59.50;;;;;;5075435;27;20490;-20
2022/07/17 07:29:49;;;;;;;0.70;0.70;;;21.30;59.40;;;;;;5072612;27;20766;-19
2022/07/17 07:32:15;;;;;;;1.05;0.68;;;21.30;59.40;;;;;;5074650;27;20055;-19
2022/07/17 07:34:40;;;;;;;0.50;0.50;;;21.30;59.40;;;;;;5073035;28;20127;-19
2022/07/17 07:37:06;;;;;;;0.70;0.70;;;21.30;59.40;;;;;;5076515;28;20062;-19
2022/07/17 07:39:31;;;;;;;1.10;0.80;;;21.30;59.30;;;;;;5073312;27;20040;-19
2022/07/17 07:41:57;;;;;;;0.60;0.60;;;21.40;59.40;;;;;;5073550;27;20044;-19
2022/07/17 07:44:23;;;;;;;0.90;0.80;;;21.40;59.40;;;;;;5071344;28;20049;-19
2022/07/17 07:46:48;;;;;;;1.30;0.88;;;21.40;59.40;;;;;;5076781;27;20056;-22
2022/07/17 07:49:15;;;;;;;0.93;0.70;;;21.40;59.40;;;;;;5070541;28;20139;-22
2022/07/17 07:51:41;;;;;;;0.80;0.80;;;21.40;59.40;;;;;;5078086;27;20060;-21
2022/07/17 07:54:06;;;;;;;0.65;0.65;;;21.40;59.40;;;;;;4715099;27;10000769;-22
2022/07/17 07:56:32;;;;;;;0.80;0.80;;;21.40;60.20;;;;;;5062767;28;20522;-21
2022/07/17 07:58:58;;;;;;;0.70;0.68;;;21.40;59.60;;;;;;5065526;27;20040;-25
2022/07/17 08:01:23;;;;;;;0.50;0.50;;;21.40;59.60;;;;;;5066881;27;20044;-21
2022/07/17 08:03:49;;;;;;;0.75;0.75;;;21.40;59.70;;;;;;5067264;27;20200;-21
2022/07/17 08:06:14;;;;;;;1.08;0.75;;;21.40;60.30;;;;;;5065633;28;20054;-21
2022/07/17 08:08:40;;;;;;;0.98;0.98;;;21.40;59.60;;;;;;5071498;27;20047;-22
2022/07/17 08:11:06;;;;;;;0.65;0.65;;;21.40;59.60;;;;;;5070016;28;20143;-21
2022/07/17 08:13:32;;;;;;;0.95;0.88;;;21.40;59.60;;;;;;5073585;27;20571;-22
2022/07/17 08:15:58;;;;;;;0.65;0.65;;;21.40;59.70;;;;;;5069008;27;20127;-22
2022/07/17 08:18:25;;;;;;;1.08;0.93;;;21.40;59.60;;;;;;5069583;27;20055;-26
2022/07/17 08:20:51;;;;;;;0.80;0.80;;;21.40;59.60;;;;;;5070971;28;20050;-22
2022/07/17 08:23:17;;;;;;;0.77;0.60;;;21.40;59.60;;;;;;5070295;28;20996;-21
2022/07/17 08:25:43;;;;;;;0.90;0.90;;;21.40;59.70;;;;;;5071569;28;20097;-22
2022/07/17 08:28:09;;;;;;;0.60;0.60;;;21.40;59.60;;;;;;5065926;27;20052;-21
2022/07/17 08:30:36;;;;;;;0.60;0.60;;;21.40;59.70;;;;;;5065966;28;20056;-21
2022/07/17 08:33:06;;;;;;;0.60;0.60;;;21.40;59.60;;;;;;5064786;27;20039;-22
2022/07/17 08:35:32;;;;;;;0.70;0.70;;;21.50;59.70;;;;;;5068547;28;20564;-22
2022/07/17 08:38:00;;;;;;;0.90;0.60;;;21.50;59.70;;;;;;5063063;28;20044;-22
2022/07/17 08:40:27;;;;;;;0.75;0.60;;;21.50;59.70;;;;;;5070853;28;20599;-21
2022/07/17 08:42:53;;;;;;;0.70;0.70;;;21.50;59.70;;;;;;5064399;28;20530;-21
2022/07/17 08:45:19;;;;;;;0.70;0.70;;;21.50;59.70;;;;;;5065100;28;20509;-22
2022/07/17 08:47:44;;;;;;;0.50;0.50;;;21.50;59.70;;;;;;5066682;28;20040;-21
2022/07/17 08:50:11;;;;;;;0.60;0.60;;;21.50;59.60;;;;;;5066489;27;20086;-21
2022/07/17 08:52:38;;;;;;;0.50;0.50;;;21.60;59.70;;;;;;5067877;27;20074;-21
2022/07/17 08:55:04;;;;;;;0.70;0.70;;;21.60;59.70;;;;;;5080178;27;20089;-21
2022/07/17 08:57:30;;;;;;;0.60;0.60;;;21.60;59.70;;;;;;5071577;27;20056;-22
2022/07/17 08:59:55;;;;;;;1.67;0.75;;;21.60;59.70;;;;;;5072683;27;20039;-21
2022/07/17 09:02:21;;;;;;;0.73;0.73;;;21.60;59.60;;;;;;5064121;27;20040;-22
2022/07/17 09:04:54;;;;;;;1.50;1.00;;;21.60;59.60;;;;;;5067000;28;20024;-21
2022/07/17 09:07:19;;;;;;;0.90;0.50;;;21.60;59.60;;;;;;5064726;27;20403;-21
2022/07/17 09:09:51;;;;;;;0.70;0.70;;;21.60;59.60;;;;;;5071304;27;20122;-21
2022/07/17 09:12:17;;;;;;;0.73;0.73;;;21.70;59.70;;;;;;5067293;28;20056;-22
2022/07/17 09:14:43;;;;;;;0.70;0.70;;;21.60;59.60;;;;;;5067772;28;20055;-22
2022/07/17 09:17:09;;;;;;;0.63;0.63;;;21.70;59.60;;;;;;5064077;27;20497;-21
2022/07/17 09:19:45;;;;;;;0.70;0.70;;;21.70;59.60;;;;;;5068476;27;20040;-30
2022/07/17 09:22:15;;;;;;;0.65;0.65;;;21.70;59.60;;;;;;5066820;27;20056;-23
2022/07/17 09:24:55;;;;;;;0.63;0.63;;;21.70;59.60;;;;;;5066850;27;20484;-21
2022/07/17 09:27:23;;;;;;;0.73;0.73;;;21.80;59.60;;;;;;5062835;28;20048;-21
2022/07/17 09:30:10;;;;;;;0.85;0.82;;;21.70;59.50;;;;;;5068854;28;20059;-21
2022/07/17 09:32:37;;;;;;;2.20;1.02;;;21.80;59.60;;;;;;5063462;27;20072;-21
2022/07/17 09:35:04;;;;;;;0.60;0.60;;;21.80;59.60;;;;;;5064629;27;20609;-23
2022/07/17 09:37:30;;;;;;;0.80;0.80;;;21.80;59.60;;;;;;5065622;27;20105;-21
2022/07/17 09:39:57;;;;;;;0.75;0.75;;;21.80;59.50;;;;;;5064623;27;20753;-22
2022/07/17 09:42:26;;;;;;;1.15;0.80;;;21.80;59.50;;;;;;5065669;27;20146;-24
2022/07/17 09:45:08;;;;;;;0.80;0.80;;;21.80;59.50;;;;;;5065547;28;20044;-23
2022/07/17 09:47:35;;;;;;;0.70;0.70;;;21.80;59.50;;;;;;5066674;28;20131;-23
2022/07/17 09:50:01;;;;;;;0.60;0.50;;;21.80;59.50;;;;;;5063393;27;20097;-23
2022/07/17 09:52:29;;;;;;;0.60;0.60;;;21.80;59.50;;;;;;5064625;27;20047;-23
2022/07/17 09:54:55;;;;;;;0.65;0.63;;;21.90;59.60;;;;;;5065293;28;20058;-21
2022/07/17 09:57:25;;;;;;;0.70;0.70;;;21.80;59.40;;;;;;5065280;27;20055;-21
2022/07/17 09:59:52;;;;;;;0.63;0.63;;;21.90;59.50;;;;;;5067266;28;20048;-21
2022/07/17 10:02:19;;;;;;;0.68;0.68;;;21.90;59.50;;;;;;5061787;28;20165;-21
2022/07/17 10:04:45;;;;;;;0.88;0.73;;;21.90;59.50;;;;;;5064347;28;20501;-23
2022/07/17 10:07:11;;;;;;;0.70;0.70;;;21.90;59.50;;;;;;5062804;28;20147;-23
2022/07/17 10:09:36;;;;;;;0.80;0.80;;;21.90;59.50;;;;;;5064300;27;20056;-23
2022/07/17 10:12:02;;;;;;;0.70;0.70;;;21.90;59.40;;;;;;5065109;28;20537;-20
2022/07/17 10:14:28;;;;;;;0.50;0.50;;;22.00;59.50;;;;;;5060812;28;20051;-21
2022/07/17 10:16:54;;;;;;;0.60;0.60;;;22.00;59.40;;;;;;5064828;28;20051;-21
2022/07/17 10:19:21;;;;;;;1.15;1.02;;;22.00;59.40;;;;;;5067338;27;20143;-21
2022/07/17 10:21:56;;;;;;;0.60;0.60;;;22.00;59.50;;;;;;5068709;27;20131;-27
2022/07/17 10:24:22;;;;;;;0.70;0.70;;;22.00;59.50;;;;;;5064745;28;20052;-21
2022/07/17 10:26:49;;;;;;;0.45;0.45;;;22.00;59.50;;;;;;5066403;28;20063;-26
2022/07/17 10:29:32;;;;;;;0.60;0.60;;;22.00;59.40;;;;;;5071211;27;20051;-21
2022/07/17 10:31:59;;;;;;;0.70;0.70;;;22.00;59.40;;;;;;5067730;28;20491;-20
2022/07/17 10:34:39;;;;;;;0.50;0.50;;;22.00;59.40;;;;;;5065300;27;20040;-21
2022/07/17 10:37:25;;;;;;;0.52;0.52;;;22.00;59.40;;;;;;5068286;28;20102;-23
2022/07/17 10:39:53;;;;;;;0.50;0.50;;;22.10;59.40;;;;;;5071378;27;20051;-21
2022/07/17 10:42:43;;;;;;;0.50;0.50;;;22.10;59.30;;;;;;5066824;28;20180;-22
2022/07/17 10:45:16;;;;;;;0.60;0.60;;;22.20;59.20;;;;;;5071408;28;20056;-21
2022/07/17 10:47:58;;;;;;;3.22;0.60;;;22.20;59.20;;;;;;5070976;28;20066;-20
2022/07/17 10:50:26;;;;;;;0.52;0.52;;;22.20;59.40;;;;;;5071622;27;20131;-21
2022/07/17 10:53:01;;;;;;;0.40;0.40;;;22.20;59.30;;;;;;5057511;28;20384;-21
2022/07/17 10:55:27;;;;;;;0.50;0.50;;;22.20;59.40;;;;;;5052727;28;20908;-20
2022/07/17 10:57:52;;;;;;;0.63;0.63;;;22.20;60.10;;;;;;5053509;28;20109;-21
2022/07/17 11:00:18;;;;;;;0.65;0.65;;;22.30;59.60;;;;;;5049981;28;20526;-22
2022/07/17 11:02:44;;;;;;;1.48;0.52;;;22.30;59.70;;;;;;5051634;28;20067;-21
2022/07/17 11:05:10;;;;;;;0.50;0.50;;;22.40;59.80;;;;;;5050588;27;20079;-21
2022/07/17 11:07:36;;;;;;;0.50;0.50;;;22.30;59.40;;;;;;5032238;28;20040;-21
2022/07/17 11:10:02;;;;;;;0.47;0.47;;;22.40;59.50;;;;;;5052435;27;20094;-21
2022/07/17 11:12:32;;;;;;;0.60;0.60;;;22.40;59.80;;;;;;5051890;28;20048;-21
2022/07/17 11:15:04;;;;;;;0.85;0.60;;;22.40;60.40;;;;;;5046794;28;20885;-21
2022/07/17 11:17:30;;;;;;;1.08;1.00;;;22.40;59.50;;;;;;5049699;28;20054;-21
2022/07/17 11:19:58;;;;;;;1.35;1.25;;;22.40;59.40;;;;;;5051743;28;20040;-21
2022/07/17 11:22:32;;;;;;;1.58;1.48;;;22.40;59.50;;;;;;5059662;27;20137;-21
2022/07/17 11:24:58;;;;;;;1.48;1.38;;;22.50;59.60;;;;;;5066287;28;20101;-21
2022/07/17 11:27:26;;;;;;;1.15;1.15;;;22.40;59.50;;;;;;5064688;28;20547;-21
2022/07/17 11:29:52;;;;;;;1.20;1.20;;;22.50;60.10;;;;;;5067128;27;20052;-21
2022/07/17 11:32:18;;;;;;;1.35;1.05;;;22.50;60.40;;;;;;5066692;27;20421;-21
2022/07/17 11:34:44;;;;;;;0.90;0.90;;;22.50;60.60;;;;;;5066810;28;20144;-21
2022/07/17 11:37:09;;;;;;;1.20;1.20;;;22.50;60.90;;;;;;5065806;28;20044;-21
2022/07/17 11:39:39;;;;;;;1.10;1.00;;;22.50;60.90;;;;;;5068284;27;20051;-21
2022/07/17 11:42:07;;;;;;;0.82;0.82;;;22.60;62.00;;;;;;5071714;28;20048;-21
2022/07/17 11:44:33;;;;;;;0.90;0.80;;;22.60;60.80;;;;;;5069171;28;20038;-21
2022/07/17 11:46:58;;;;;;;1.10;0.93;;;22.60;60.70;;;;;;5072974;27;20040;-21
2022/07/17 11:49:31;;;;;;;1.00;1.00;;;22.60;60.90;;;;;;5073524;27;20135;-21
2022/07/17 11:51:58;;;;;;;0.98;0.98;;;22.60;60.90;;;;;;5073154;27;20059;-20
2022/07/17 11:54:25;;;;;;;0.77;0.77;;;22.60;60.90;;;;;;5070536;27;20056;-21
2022/07/17 11:56:53;;;;;;;0.70;0.70;;;22.60;60.90;;;;;;5069869;28;20951;-21
2022/07/17 11:59:27;;;;;;;0.70;0.70;;;22.70;60.70;;;;;;5068750;27;21188;-21
2022/07/17 12:01:53;;;;;;;0.80;0.73;;;22.70;60.70;;;;;;5071268;28;20591;-21
2022/07/17 12:04:19;;;;;;;0.50;0.50;;;22.70;60.50;;;;;;5071868;27;20040;-20
2022/07/17 12:06:45;;;;;;;0.77;0.70;;;22.70;60.30;;;;;;5070890;28;20602;-24
2022/07/17 12:09:11;;;;;;;0.82;0.82;;;22.70;60.40;;;;;;5068867;27;20044;-21
2022/07/17 12:11:47;;;;;;;0.52;0.52;;;22.80;60.50;;;;;;5053707;28;20052;-19
2022/07/17 12:14:13;;;;;;;0.65;0.65;;;22.70;60.40;;;;;;5069374;28;20135;-20
2022/07/17 12:16:39;;;;;;;0.50;0.50;;;22.80;60.40;;;;;;5070587;27;20506;-20
2022/07/17 12:19:14;;;;;;;0.60;0.60;;;22.80;60.40;;;;;;5071083;28;20051;-21
2022/07/17 12:21:54;;;;;;;0.70;0.70;;;22.80;60.30;;;;;;5071210;28;20036;-19
2022/07/17 12:24:30;;;;;;;0.60;0.60;;;22.80;60.30;;;;;;5068872;28;20060;-20
2022/07/17 12:26:57;;;;;;;0.45;0.45;;;22.80;60.20;;;;;;5070943;28;20128;-20
2022/07/17 12:29:23;;;;;;;0.70;0.70;;;22.80;60.90;;;;;;5068241;27;20083;-19
2022/07/17 12:31:59;;;;;;;0.70;0.70;;;22.90;60.10;;;;;;5073941;28;20218;-19
2022/07/17 12:34:24;;;;;;;0.57;0.57;;;22.80;60.10;;;;;;5070387;27;20048;-19
2022/07/17 12:36:50;;;;;;;0.60;0.60;;;22.90;60.10;;;;;;5069540;27;20063;-20
2022/07/17 12:39:16;;;;;;;0.50;0.50;;;22.90;60.10;;;;;;5072887;28;20059;-20
2022/07/17 12:41:42;;;;;;;0.50;0.50;;;22.90;60.10;;;;;;5070763;28;20853;-20
2022/07/17 12:44:07;;;;;;;0.57;0.57;;;22.90;60.00;;;;;;5070290;28;20052;-20
2022/07/17 12:46:33;;;;;;;0.50;0.50;;;22.90;60.00;;;;;;5071068;28;20047;-20
2022/07/17 12:48:58;;;;;;;0.50;0.50;;;22.90;60.00;;;;;;5078757;27;20067;-20